TAF and METAR

METAR for Tindal Airport

YPTN 280430Z 13012KT 010V140 CAVOK 36/14 Q1010 RF00.0/000.0 BKN085 NOSIG RMK USE TAF FM0500Z
Report created 28. okt 05:30
wind 12 knots from SE (130°) Wind direction varies from N to SE Clear sky Temperature 36° with dewpoint at 14° (Humidity 26.96%) Pressure 1010 hPa

TAF for Tindal Airport

TAF AMD YPTN 272234Z 2723/2900 02005KT CAVOK FM280200 11010KT CAVOK FM281400 02005KT CAVOK PROB30 TEMPO 2806/2810 VRB20G35KT 2000 TSRA BKN010 SCT060CB
Report created 27. okt 23:34

between 28. okt 00:00 - 29. okt 01:00

wind 5 knots from NNE (020°) Clear sky

From 28. okt 03:00

wind 10 knots from ESE (110°) Clear sky

From 28. okt 15:00

wind 5 knots from NNE (020°) Clear sky

probably (~30%) temporarily between 28. okt 07:00 - 28. okt 11:00

wind 20 knots from various directions with gusts up to 35 knots visibility 2000 meters thunderstorm and rain broken clouds (~75% cover) at 1000 feet scattered clouds (~50% cover) at 6000 feet of type cumulonimbus
Tindal Airport in Australia at 109m

Latest 5 airports